Time;durP1;ratioP1;P1;durP2;ratioP2;P2;SDS_P1;SDS_P2;PMS_P1;PMS_P2;Temp;Humidity;BMP_temperature;BMP_pressure;BME280_temperature;BME280_humidity;BME280_pressure;Samples;Min_cycle;Max_cycle;Signal;HPM_P1;HPM_P2
2022/05/26 00:02:18;;;;;;;12.73;7.70;;;;;;;10.31;75.64;100342.37;2100981;84;27915;-64
2022/05/26 00:05:20;;;;;;;13.20;8.85;;;;;;;10.27;75.77;100341.66;2101216;84;29091;-66
2022/05/26 00:08:23;;;;;;;8.30;7.25;;;;;;;10.25;75.83;100344.03;2100904;84;32394;-66
2022/05/26 00:11:34;;;;;;;10.05;7.60;;;;;;;10.22;75.90;100347.70;2101155;84;33043;-63
2022/05/26 00:14:37;;;;;;;11.83;8.05;;;;;;;10.21;75.91;100349.97;2101132;84;29497;-64
2022/05/26 00:17:40;;;;;;;9.40;8.40;;;;;;;10.18;76.10;100352.79;2101050;84;27817;-63
2022/05/26 00:20:42;;;;;;;9.50;8.10;;;;;;;10.19;76.17;100351.84;2102419;84;29544;-63
2022/05/26 00:23:44;;;;;;;8.78;7.92;;;;;;;10.18;76.33;100349.66;2104490;84;31112;-64
2022/05/26 00:26:47;;;;;;;9.45;8.00;;;;;;;10.20;76.39;100354.93;2104527;84;33838;-64
2022/05/26 00:29:49;;;;;;;8.55;7.60;;;;;;;10.22;76.48;100346.84;2105152;84;29375;-64
2022/05/26 00:32:52;;;;;;;8.53;7.50;;;;;;;10.25;76.63;100351.57;2104654;84;27690;-64
2022/05/26 00:35:54;;;;;;;12.58;8.03;;;;;;;10.28;76.64;100348.75;2104883;84;29381;-63
2022/05/26 00:38:56;;;;;;;10.25;7.75;;;;;;;10.32;76.76;100351.69;2104586;84;32314;-64
2022/05/26 00:42:01;;;;;;;9.75;8.43;;;;;;;10.37;76.86;100346.56;2104665;84;33431;-63
2022/05/26 00:45:06;;;;;;;9.75;7.53;;;;;;;10.42;76.97;100352.61;2104780;84;30032;-64
2022/05/26 00:48:13;;;;;;;8.53;7.65;;;;;;;10.46;77.04;100344.34;2105094;84;27689;-63
2022/05/26 00:51:17;;;;;;;11.68;7.72;;;;;;;10.52;77.05;100340.49;2104697;84;29363;-65
2022/05/26 00:54:23;;;;;;;8.83;7.40;;;;;;;10.58;77.20;100348.23;2104950;84;31169;-63
2022/05/26 00:57:32;;;;;;;7.90;7.10;;;;;;;10.64;77.15;100348.41;2105284;84;33598;-63
2022/05/26 01:00:37;;;;;;;8.40;7.33;;;;;;;10.70;77.29;100348.11;2105125;84;29033;-63
2022/05/26 01:03:47;;;;;;;8.68;7.67;;;;;;;10.73;77.35;100339.05;2104652;83;27625;-65
2022/05/26 01:06:55;;;;;;;8.80;7.50;;;;;;;10.80;77.39;100345.84;2105115;84;28729;-64
2022/05/26 01:09:56;;;;;;;7.62;6.92;;;;;;;10.84;77.34;100346.55;2105083;84;31018;-64
2022/05/26 01:12:58;;;;;;;10.43;8.40;;;;;;;10.87;77.41;100349.94;2104097;84;34071;-65
2022/05/26 01:16:11;;;;;;;9.00;7.08;;;;;;;10.93;77.48;100350.09;2094550;84;29756;-64
2022/05/26 01:19:41;;;;;;;8.13;6.67;;;;;;;10.98;77.60;100346.72;2088574;84;27791;-63
2022/05/26 01:23:03;;;;;;;8.85;7.65;;;;;;;11.04;77.64;100341.06;2101123;83;29488;-64
2022/05/26 01:26:22;;;;;;;10.08;7.90;;;;;;;11.10;77.60;100339.88;2100713;84;32258;-63
2022/05/26 01:29:51;;;;;;;8.95;7.25;;;;;;;11.14;77.57;100340.12;2101018;84;34227;-64
2022/05/26 01:32:58;;;;;;;7.55;6.37;;;;;;;11.17;77.46;100339.94;2101134;84;29337;-65
2022/05/26 01:36:38;;;;;;;7.10;6.37;;;;;;;11.19;77.45;100330.48;2066937;86;27589;-64
2022/05/26 01:40:11;;;;;;;8.50;6.80;;;;;;;11.21;77.41;100339.33;2066126;84;28932;-63
2022/05/26 01:43:41;;;;;;;10.95;6.92;;;;;;;11.19;77.33;100336.70;2069706;84;32474;-63
2022/05/26 01:46:45;;;;;;;7.90;6.97;;;;;;;11.18;77.28;100334.12;2100717;84;34185;-64
2022/05/26 01:49:56;;;;;;;10.30;6.72;;;;;;;11.14;77.23;100333.88;2100935;84;29387;-64
2022/05/26 01:53:34;;;;;;;7.75;6.90;;;;;;;11.09;77.14;100333.62;2100578;84;27634;-65
2022/05/26 01:56:50;;;;;;;7.10;6.40;;;;;;;11.04;77.03;100328.11;2085724;84;28685;-64
2022/05/26 01:59:56;;;;;;;8.30;6.35;;;;;;;10.98;76.88;100335.15;2100786;84;31053;-64
2022/05/26 02:03:15;;;;;;;7.70;6.60;;;;;;;10.90;76.80;100335.53;2083321;84;34092;-64
2022/05/26 02:06:28;;;;;;;9.38;6.37;;;;;;;10.84;76.76;100338.03;2101124;84;29500;-63
2022/05/26 02:09:38;;;;;;;8.75;6.78;;;;;;;10.75;76.65;100335.37;2100860;84;27628;-63
2022/05/26 02:12:47;;;;;;;9.88;6.60;;;;;;;10.68;76.60;100340.62;2100737;84;29528;-64
2022/05/26 02:15:54;;;;;;;9.38;6.83;;;;;;;10.60;76.63;100339.66;2101071;84;31002;-64
2022/05/26 02:19:11;;;;;;;7.12;6.42;;;;;;;10.53;76.49;100343.56;2100663;84;32968;-64
2022/05/26 02:22:37;;;;;;;8.05;6.80;;;;;;;10.45;76.55;100341.27;2102131;83;29443;-63
2022/05/26 02:25:39;;;;;;;10.63;8.08;;;;;;;10.38;76.57;100342.52;2103011;84;27671;-63
2022/05/26 02:32:03;;;;;;;8.78;6.78;;;;;;;10.23;76.55;100347.24;2102963;84;30964;-63
2022/05/26 02:35:15;;;;;;;11.90;6.87;;;;;;;10.16;76.54;100339.48;2096079;84;33109;-63
2022/05/26 02:38:22;;;;;;;12.13;7.60;;;;;;;10.10;76.56;100347.80;2102772;84;30532;-63
2022/05/26 02:41:24;;;;;;;9.10;7.40;;;;;;;10.05;76.55;100349.84;2103298;84;27674;-63
2022/05/26 02:44:29;;;;;;;9.80;7.25;;;;;;;9.99;76.62;100350.12;2103083;84;29639;-63
2022/05/26 02:48:10;;;;;;;7.40;6.08;;;;;;;9.95;76.62;100352.08;2102911;84;32249;-63
2022/05/26 02:51:23;;;;;;;9.43;8.03;;;;;;;9.92;76.69;100354.03;2041416;87;32965;-64
2022/05/26 02:54:50;;;;;;;9.98;8.30;;;;;;;9.85;76.68;100344.05;2041194;87;29528;-64
2022/05/26 02:58:16;;;;;;;9.28;7.28;;;;;;;9.82;76.64;100342.88;2041108;87;27745;-64
2022/05/26 03:01:48;;;;;;;9.30;7.53;;;;;;;9.78;76.67;100347.48;2041595;87;28517;-64
2022/05/26 03:05:25;;;;;;;8.55;7.45;;;;;;;9.76;76.69;100348.50;1907730;93;31424;-64
2022/05/26 03:08:30;;;;;;;11.65;8.20;;;;;;;9.74;76.71;100349.92;1911823;93;33458;-65
2022/05/26 03:11:54;;;;;;;8.38;7.50;;;;;;;9.73;76.76;100340.16;1912040;93;30135;-65
2022/05/26 03:14:56;;;;;;;9.73;7.72;;;;;;;9.74;76.83;100349.92;1883309;94;27878;-65
2022/05/26 03:18:02;;;;;;;10.88;8.90;;;;;;;9.73;76.79;100339.67;1883183;94;28788;-64
2022/05/26 03:21:06;;;;;;;8.85;7.17;;;;;;;9.76;76.94;100344.04;1887987;91;33123;-64
2022/05/26 03:24:10;;;;;;;9.60;8.23;;;;;;;9.77;76.99;100344.41;1926155;92;34303;-66
2022/05/26 03:27:12;;;;;;;10.38;8.08;;;;;;;9.79;77.03;100333.66;1931405;92;29482;-65
2022/05/26 03:30:14;;;;;;;10.20;8.48;;;;;;;9.82;77.06;100333.03;1931449;92;27817;-66
2022/05/26 03:33:16;;;;;;;9.10;8.20;;;;;;;9.86;77.09;100337.77;1931121;92;28699;-65
2022/05/26 03:43:00;;;;;;;12.50;9.95;;;;;;;10.11;77.22;100340.16;2021003;87;30460;-64
2022/05/26 03:46:03;;;;;;;11.55;10.15;;;;;;;10.19;77.42;100339.80;2046232;87;27744;-65
2022/05/26 03:49:05;;;;;;;10.60;9.20;;;;;;;10.26;77.48;100342.60;2046203;87;28639;-64
2022/05/26 03:52:08;;;;;;;10.50;9.15;;;;;;;10.32;77.34;100348.13;2042492;87;31146;-64
2022/05/26 03:55:10;;;;;;;10.00;8.90;;;;;;;10.39;77.32;100337.56;2076478;85;32986;-64
2022/05/26 03:58:12;;;;;;;10.25;9.15;;;;;;;10.45;77.41;100338.59;2076045;85;30250;-64
2022/05/26 04:01:14;;;;;;;11.15;9.20;;;;;;;10.54;77.33;100340.44;2076145;85;27739;-65
2022/05/26 04:04:16;;;;;;;10.15;8.98;;;;;;;10.59;77.31;100337.07;2076285;85;29944;-64
2022/05/26 04:07:18;;;;;;;9.90;8.98;;;;;;;10.68;77.33;100347.31;2076610;85;31536;-64
2022/05/26 04:10:21;;;;;;;9.73;8.70;;;;;;;10.73;77.22;100347.97;2075946;85;33834;-64
2022/05/26 04:13:23;;;;;;;11.05;9.65;;;;;;;10.79;77.21;100345.45;2076222;85;29193;-64
2022/05/26 04:16:25;;;;;;;12.53;9.38;;;;;;;10.88;77.18;100348.14;2076182;85;27706;-64
2022/05/26 04:19:27;;;;;;;14.45;10.93;;;;;;;10.99;77.33;100349.80;2076274;85;29989;-64
2022/05/26 04:22:29;;;;;;;13.38;11.10;;;;;;;11.12;77.42;100347.38;2080116;83;31831;-64
2022/05/26 04:25:31;;;;;;;16.10;11.53;;;;;;;11.28;77.54;100349.27;2084141;84;34345;-65
2022/05/26 04:28:34;;;;;;;13.48;12.07;;;;;;;11.55;78.01;100347.80;2084195;84;30708;-64
2022/05/26 04:31:36;;;;;;;14.90;13.40;;;;;;;11.89;78.02;100349.16;2084362;84;27834;-65
2022/05/26 04:34:39;;;;;;;17.52;15.65;;;;;;;12.28;78.16;100351.10;2084327;85;28197;-63
2022/05/26 04:37:41;;;;;;;16.05;11.83;;;;;;;13.38;80.79;100342.91;2084055;85;31895;-63
2022/05/26 04:40:45;;;;;;;12.85;9.53;;;;;;;14.99;79.99;100337.72;2084094;84;34163;-63
2022/05/26 04:43:47;;;;;;;12.65;9.10;;;;;;;15.85;77.69;100338.13;2084456;85;29370;-64
2022/05/26 04:46:49;;;;;;;8.95;8.05;;;;;;;16.41;76.55;100341.77;2084356;84;27709;-64
2022/05/26 04:49:51;;;;;;;8.23;6.90;;;;;;;16.85;75.50;100347.08;2084222;84;29885;-65
2022/05/26 04:52:53;;;;;;;12.73;8.15;;;;;;;17.18;74.85;100344.64;2084127;84;32356;-64
2022/05/26 04:55:55;;;;;;;9.93;7.60;;;;;;;17.28;73.79;100340.73;2084201;84;33983;-64
2022/05/26 04:58:58;;;;;;;7.55;6.85;;;;;;;17.37;73.48;100345.45;2084245;85;30545;-64
2022/05/26 05:02:01;;;;;;;8.78;7.05;;;;;;;18.13;74.12;100339.49;2084364;84;27617;-64
2022/05/26 05:05:04;;;;;;;9.53;5.95;;;;;;;19.00;73.22;100341.91;2084105;85;28711;-64
2022/05/26 05:08:07;;;;;;;7.75;5.80;;;;;;;19.62;72.15;100335.26;2084702;84;31093;-64
2022/05/26 05:11:10;;;;;;;4.85;4.42;;;;;;;20.48;71.70;100341.74;2084312;85;33453;-63
2022/05/26 05:14:13;;;;;;;14.30;4.45;;;;;;;21.63;70.32;100336.63;2084541;84;29336;-63
2022/05/26 05:17:17;;;;;;;2.58;2.35;;;;;;;22.56;69.01;100333.06;2084751;85;27703;-64
2022/05/26 05:20:19;;;;;;;8.03;2.70;;;;;;;22.98;67.13;100326.66;2084660;85;28719;-65
2022/05/26 05:23:21;;;;;;;8.73;2.10;;;;;;;23.08;65.93;100333.41;2096327;83;32392;-64
2022/05/26 05:26:24;;;;;;;7.90;2.00;;;;;;;23.01;64.89;100335.89;2102956;84;32978;-64
2022/05/26 05:29:31;;;;;;;4.83;2.75;;;;;;;22.81;63.86;100341.53;2102676;84;30198;-64
2022/05/26 05:32:44;;;;;;;8.15;2.30;;;;;;;22.63;63.50;100344.23;2103054;84;27687;-65
2022/05/26 05:35:56;;;;;;;6.47;2.45;;;;;;;22.48;63.05;100347.12;2090281;84;28645;-63
2022/05/26 05:39:00;;;;;;;5.30;1.85;;;;;;;22.31;62.21;100346.41;2084884;84;31266;-64
2022/05/26 05:42:04;;;;;;;3.37;2.20;;;;;;;22.14;61.41;100349.42;2102959;84;33759;-65
2022/05/26 05:45:07;;;;;;;4.57;1.43;;;;;;;21.95;61.32;100350.38;2103221;84;30142;-64
2022/05/26 05:48:10;;;;;;;3.73;1.87;;;;;;;21.79;59.88;100347.41;2103296;84;27694;-64
2022/05/26 05:51:13;;;;;;;4.95;1.92;;;;;;;21.65;60.36;100350.09;2103006;84;28647;-64
2022/05/26 05:54:17;;;;;;;6.87;2.30;;;;;;;21.59;60.44;100350.16;2103093;84;32052;-64
2022/05/26 05:57:20;;;;;;;5.15;2.12;;;;;;;21.55;59.87;100348.72;2103055;84;34718;-65
2022/05/26 06:00:24;;;;;;;3.17;2.55;;;;;;;21.51;59.16;100356.86;2103185;84;30045;-64
2022/05/26 06:03:33;;;;;;;6.45;2.08;;;;;;;21.50;59.00;100349.16;2102758;84;27722;-65
2022/05/26 06:06:41;;;;;;;4.90;1.60;;;;;;;21.52;58.86;100353.97;2102806;84;28676;-68
2022/05/26 06:09:44;;;;;;;5.37;1.87;;;;;;;21.51;58.54;100359.06;2102974;84;31778;-68
2022/05/26 06:12:46;;;;;;;3.45;1.90;;;;;;;21.51;57.42;100364.52;2102942;84;33129;-67
2022/05/26 06:15:49;;;;;;;3.17;2.00;;;;;;;21.47;57.82;100357.62;2102738;84;30145;-67
2022/05/26 06:18:51;;;;;;;4.50;1.90;;;;;;;21.49;57.59;100365.16;2102996;84;27662;-68
2022/05/26 06:21:54;;;;;;;5.75;1.98;;;;;;;21.51;57.53;100369.97;2103824;84;28655;-67
2022/05/26 06:24:57;;;;;;;4.60;1.95;;;;;;;21.53;57.08;100372.05;2116872;84;31093;-67
2022/05/26 06:31:22;;;;;;;4.15;1.77;;;;;;;21.82;56.71;100376.60;2116945;84;30074;-66
2022/05/26 06:37:45;;;;;;;4.62;1.77;;;;;;;22.45;55.87;100368.78;2116795;84;29057;-70
2022/05/26 06:40:48;;;;;;;3.87;1.45;;;;;;;22.77;55.34;100368.80;2117010;84;31598;-67
2022/05/26 06:43:51;;;;;;;5.85;1.70;;;;;;;23.09;54.79;100367.89;2116967;84;32454;-69
2022/05/26 06:46:54;;;;;;;5.58;1.82;;;;;;;23.38;54.68;100370.94;2117121;84;29971;-68
2022/05/26 06:49:55;;;;;;;5.00;1.70;;;;;;;23.73;53.82;100369.99;2116988;84;27678;-67
2022/05/26 06:52:57;;;;;;;6.78;1.85;;;;;;;24.16;53.82;100376.10;2116831;84;28598;-67
2022/05/26 06:55:59;;;;;;;14.25;1.55;;;;;;;24.53;52.99;100366.16;2116842;84;32176;-66
2022/05/26 06:59:05;;;;;;;3.33;1.35;;;;;;;24.95;52.02;100363.53;2116586;84;33989;-66
2022/05/26 07:02:11;;;;;;;3.60;1.70;;;;;;;25.34;50.75;100368.38;2083852;85;29342;-68
2022/05/26 07:05:14;;;;;;;2.42;1.40;;;;;;;25.68;50.54;100373.34;2116673;84;27717;-66
2022/05/26 07:08:16;;;;;;;3.95;1.60;;;;;;;26.03;49.94;100361.59;2083673;84;29840;-66
2022/05/26 07:11:19;;;;;;;3.55;1.47;;;;;;;26.35;49.02;100363.91;2117325;84;32018;-65
2022/05/26 07:14:21;;;;;;;2.92;1.40;;;;;;;26.70;48.83;100364.42;2116990;84;33797;-63
2022/05/26 07:17:24;;;;;;;6.25;1.40;;;;;;;27.05;47.65;100359.95;2116784;84;30516;-64
2022/05/26 07:20:26;;;;;;;3.30;1.37;;;;;;;27.27;47.26;100366.48;2117262;84;27528;-63
2022/05/26 07:23:28;;;;;;;7.97;1.80;;;;;;;27.46;46.29;100368.42;2109444;83;29468;-65
2022/05/26 07:26:32;;;;;;;4.10;1.30;;;;;;;27.66;45.62;100371.50;2100881;84;32465;-64
2022/05/26 07:29:34;;;;;;;2.22;1.50;;;;;;;27.88;44.74;100376.60;2101516;84;33869;-64
2022/05/26 07:32:36;;;;;;;1.82;1.35;;;;;;;28.03;44.65;100373.88;2100979;84;30010;-65
2022/05/26 07:35:39;;;;;;;2.67;1.15;;;;;;;28.34;43.74;100376.44;2101310;84;27694;-65
2022/05/26 07:42:06;;;;;;;2.52;1.32;;;;;;;28.82;42.07;100373.77;2100846;84;33087;-65
2022/05/26 07:45:10;;;;;;;7.35;1.32;;;;;;;28.80;40.81;100373.97;2100499;84;34216;-64
2022/05/26 07:48:12;;;;;;;4.00;1.10;;;;;;;28.85;41.34;100370.62;2101386;84;30166;-64
2022/05/26 07:51:16;;;;;;;3.33;0.90;;;;;;;29.05;40.41;100369.98;2101208;84;27783;-64
2022/05/26 07:54:21;;;;;;;1.75;1.22;;;;;;;29.11;40.07;100376.95;2101442;84;28647;-64
2022/05/26 07:57:27;;;;;;;1.87;1.00;;;;;;;29.24;39.71;100380.37;2100875;84;32225;-66
2022/05/26 08:00:29;;;;;;;3.98;1.05;;;;;;;29.41;39.42;100373.23;2101151;84;32979;-64
2022/05/26 08:03:32;;;;;;;3.25;1.20;;;;;;;29.62;38.85;100377.86;2100821;84;30196;-64
2022/05/26 08:06:36;;;;;;;3.37;1.37;;;;;;;29.82;38.85;100368.87;2101222;84;28047;-65
2022/05/26 08:09:38;;;;;;;3.77;0.93;;;;;;;30.04;38.49;100364.16;2101437;84;28749;-66
2022/05/26 08:12:40;;;;;;;3.37;1.07;;;;;;;30.26;37.57;100368.22;2100822;84;31932;-65
2022/05/26 08:15:42;;;;;;;1.80;1.00;;;;;;;30.62;38.09;100368.48;2100788;84;34297;-65
2022/05/26 08:18:45;;;;;;;2.75;0.98;;;;;;;30.96;37.09;100369.98;2100737;84;30509;-64
2022/05/26 08:21:49;;;;;;;6.37;1.00;;;;;;;31.07;36.38;100365.20;2100811;84;27709;-64
2022/05/26 08:24:56;;;;;;;;;;;;;;;31.03;35.36;100371.70;2104676;83;28705;-65
2022/05/26 08:27:58;;;;;;;4.08;0.90;;;;;;;31.04;35.05;100373.92;2102997;84;31056;-65
2022/05/26 08:31:01;;;;;;;2.58;1.40;;;;;;;31.05;34.77;100378.39;2102826;84;33045;-65
2022/05/26 08:34:03;;;;;;;2.17;1.00;;;;;;;31.16;34.48;100373.68;2102497;84;30186;-63
2022/05/26 08:37:15;;;;;;;1.22;1.00;;;;;;;31.16;34.21;100373.68;2083879;84;27792;-65
2022/05/26 08:40:40;;;;;;;5.87;1.50;;;;;;;31.06;33.66;100374.05;2102849;84;29058;-65
2022/05/26 08:43:52;;;;;;;2.72;1.00;;;;;;;30.98;33.25;100380.31;2102439;84;31099;-65
2022/05/26 08:47:04;;;;;;;4.03;0.75;;;;;;;30.78;32.93;100376.12;2102952;84;33021;-66
2022/05/26 08:50:15;;;;;;;3.02;0.90;;;;;;;30.71;32.79;100376.07;2102629;84;29401;-64
2022/05/26 08:53:25;;;;;;;5.83;1.05;;;;;;;30.60;32.53;100382.53;2102414;84;27699;-65
2022/05/26 08:56:28;;;;;;;2.55;1.20;;;;;;;30.46;32.01;100374.67;2102813;84;28642;-66
2022/05/26 08:59:41;;;;;;;3.70;0.90;;;;;;;30.49;32.29;100383.61;2102487;84;32198;-64
2022/05/26 09:02:43;;;;;;;3.05;0.70;;;;;;;30.58;31.68;100381.88;2102450;84;33381;-65
2022/05/26 09:05:46;;;;;;;4.97;1.20;;;;;;;30.51;31.78;100380.98;2102759;84;30001;-64
2022/05/26 09:15:37;;;;;;;3.05;1.15;;;;;;;30.17;31.53;100386.88;2102799;84;32209;-65
2022/05/26 09:18:40;;;;;;;9.68;1.35;;;;;;;29.91;31.72;100384.77;2103146;84;33067;-65
2022/05/26 09:21:44;;;;;;;1.40;1.03;;;;;;;29.79;31.55;100381.16;2103221;84;28770;-64
2022/05/26 09:24:46;;;;;;;1.30;1.10;;;;;;;29.67;31.81;100389.67;2112454;84;27623;-65
2022/05/26 09:27:52;;;;;;;5.00;1.00;;;;;;;29.49;31.86;100377.21;2116765;84;29549;-65
2022/05/26 09:30:54;;;;;;;6.70;1.07;;;;;;;29.23;32.11;100386.94;2117299;84;31094;-64
2022/05/26 09:34:20;;;;;;;3.02;1.00;;;;;;;29.17;32.04;100384.95;2116780;84;34193;-65
2022/05/26 09:37:27;;;;;;;3.40;1.07;;;;;;;29.14;32.46;100385.34;2116788;84;30487;-63
2022/05/26 09:40:40;;;;;;;1.95;1.02;;;;;;;29.02;31.72;100394.69;2101682;83;27799;-64
2022/05/26 09:43:56;;;;;;;2.52;1.57;;;;;;;28.68;31.96;100392.55;2104909;84;28500;-65
2022/05/26 09:47:02;;;;;;;3.80;1.02;;;;;;;28.48;32.49;100388.50;2104566;84;32331;-64
2022/05/26 09:50:10;;;;;;;1.60;0.98;;;;;;;28.18;32.15;100391.28;2104846;84;32935;-65
2022/05/26 09:53:14;;;;;;;0.78;0.60;;;;;;;27.82;32.26;100393.86;2104627;84;29370;-65
2022/05/26 09:56:34;;;;;;;1.30;0.97;;;;;;;27.62;32.91;100394.42;2083776;84;27759;-65
2022/05/26 09:59:39;;;;;;;3.90;0.80;;;;;;;27.56;33.05;100384.98;2104952;84;29456;-66
2022/05/26 10:02:41;;;;;;;2.47;0.80;;;;;;;27.46;33.47;100397.32;2103850;82;32255;-66
2022/05/26 10:06:03;;;;;;;1.12;0.88;;;;;;;27.53;33.43;100396.89;2104592;84;33452;-66
2022/05/26 10:09:44;;;;;;;2.33;0.65;;;;;;;27.55;33.31;100392.91;2104595;84;30703;-66
2022/05/26 10:13:09;;;;;;;0.75;0.60;;;;;;;27.56;33.54;100389.11;2104841;84;27723;-65
2022/05/26 10:16:28;;;;;;;2.83;1.00;;;;;;;27.51;33.87;100392.97;2105191;84;29816;-64
2022/05/26 10:20:21;;;;;;;3.33;1.20;;;;;;;27.48;33.87;100396.59;2105085;84;32037;-65
2022/05/26 10:23:47;;;;;;;3.92;1.00;;;;;;;27.27;33.54;100396.74;2104356;83;33440;-68
2022/05/26 10:30:55;;;;;;;1.80;1.15;;;;;;;27.15;33.41;100404.02;1944689;91;27794;-67
2022/05/26 10:34:22;;;;;;;1.25;0.90;;;;;;;26.99;33.88;100394.02;1944327;90;29916;-65
2022/05/26 10:37:48;;;;;;;2.12;1.12;;;;;;;26.95;33.82;100404.19;1944736;91;31883;-66
2022/05/26 10:40:58;;;;;;;4.50;0.90;;;;;;;26.91;33.88;100402.83;1888683;94;33063;-65
2022/05/26 10:44:06;;;;;;;2.37;0.95;;;;;;;26.99;34.05;100406.89;1915121;92;29448;-66
2022/05/26 10:47:19;;;;;;;3.75;0.85;;;;;;;26.88;33.76;100401.81;1944884;91;27739;-66
2022/05/26 10:50:27;;;;;;;1.52;0.60;;;;;;;26.76;34.06;100418.69;1944842;90;28724;-65
2022/05/26 10:53:37;;;;;;;3.08;0.70;;;;;;;26.80;34.31;100404.09;1914976;92;31055;-64
2022/05/26 10:56:59;;;;;;;2.05;0.80;;;;;;;27.05;34.77;100406.70;1914778;92;33021;-65
2022/05/26 11:00:11;;;;;;;2.65;0.80;;;;;;;27.29;34.74;100405.67;1780822;97;29269;-65
2022/05/26 11:03:25;;;;;;;1.55;0.60;;;;;;;27.51;34.29;100401.72;1859036;94;27755;-65
2022/05/26 11:06:32;;;;;;;2.00;0.78;;;;;;;27.66;34.47;100403.16;1877983;94;29546;-65
2022/05/26 11:09:52;;;;;;;2.20;1.00;;;;;;;27.59;34.31;100408.02;1877892;94;31279;-65
2022/05/26 11:13:06;;;;;;;1.95;0.72;;;;;;;27.39;33.93;100417.27;1807214;98;34168;-65
2022/05/26 11:20:39;;;;;;;4.17;1.05;;;;;;;26.67;33.69;100419.24;1853556;94;27806;-67
2022/05/26 11:24:00;;;;;;;2.15;0.42;;;;;;;26.60;34.31;100414.64;1794442;97;28719;-66
2022/05/26 11:27:27;;;;;;;3.27;1.20;;;;;;;26.65;34.58;100405.33;1801005;98;31196;-67
2022/05/26 11:37:41;;;;;;;6.90;1.00;;;;;;;27.18;33.97;100419.83;2002332;88;27761;-67
2022/05/26 11:40:52;;;;;;;1.62;0.70;;;;;;;27.28;33.98;100415.80;2014012;88;28801;-65
2022/05/26 11:44:07;;;;;;;1.47;0.78;;;;;;;27.51;33.97;100414.98;2012590;87;31137;-66
2022/05/26 11:47:32;;;;;;;5.42;0.80;;;;;;;27.66;33.24;100413.63;2012584;88;32952;-66
2022/05/26 11:50:51;;;;;;;2.40;0.82;;;;;;;27.81;33.24;100407.30;2012848;88;29162;-66
2022/05/26 11:53:53;;;;;;;5.37;0.70;;;;;;;27.79;33.02;100418.50;2014144;88;27758;-66
2022/05/26 11:56:56;;;;;;;2.00;0.75;;;;;;;27.73;32.70;100414.61;2014139;88;29131;-66
2022/05/26 12:00:03;;;;;;;1.25;0.90;;;;;;;27.62;32.95;100417.81;2047839;84;32040;-66
2022/05/26 12:03:27;;;;;;;6.08;1.35;;;;;;;27.39;32.48;100409.02;2074604;85;33255;-66
2022/05/26 12:06:40;;;;;;;5.30;1.12;;;;;;;27.13;32.66;100402.51;2116962;84;29376;-66
2022/05/26 12:09:54;;;;;;;1.22;0.72;;;;;;;26.69;32.45;100422.67;2117392;84;27672;-66
2022/05/26 12:13:27;;;;;;;2.98;0.80;;;;;;;26.15;33.31;100393.69;2117316;84;29933;-66
2022/05/26 12:16:29;;;;;;;1.85;0.93;;;;;;;26.15;33.31;100393.69;2117211;84;31206;-66
2022/05/26 12:19:44;;;;;;;8.40;1.20;;;;;;;26.13;33.37;100417.22;2116837;84;33740;-66
2022/05/26 12:22:58;;;;;;;4.30;0.80;;;;;;;26.08;33.36;100403.12;2116675;84;30694;-65
2022/05/26 12:26:31;;;;;;;2.30;0.70;;;;;;;26.11;33.88;100404.18;2106769;84;28278;-67
2022/05/26 12:30:01;;;;;;;3.30;0.85;;;;;;;26.25;33.90;100403.95;2084918;84;28691;-66
2022/05/26 12:33:27;;;;;;;2.37;0.98;;;;;;;26.20;33.80;100398.15;2103239;84;30905;-62
2022/05/26 12:36:52;;;;;;;1.02;0.70;;;;;;;26.13;33.56;100395.75;2102823;84;34200;-63
2022/05/26 12:40:28;;;;;;;1.40;0.70;;;;;;;26.12;32.94;100388.05;2073776;85;29767;-61
2022/05/26 12:43:58;;;;;;;1.50;1.00;;;;;;;26.21;33.54;100383.39;2043863;87;27799;-62
2022/05/26 12:47:29;;;;;;;1.22;0.78;;;;;;;26.31;33.70;100381.27;2043425;87;29250;-60
2022/05/26 12:50:39;;;;;;;2.80;0.75;;;;;;;26.22;33.84;100379.08;2042053;87;31188;-63
2022/05/26 12:53:47;;;;;;;1.20;0.68;;;;;;;26.23;33.96;100376.67;2043638;87;32961;-63
2022/05/26 12:56:59;;;;;;;1.60;0.70;;;;;;;26.26;33.53;100378.73;2043368;87;30726;-62
2022/05/26 13:00:36;;;;;;;1.22;0.50;;;;;;;26.42;33.67;100380.53;2030097;87;27815;-60
2022/05/26 13:04:02;;;;;;;2.83;0.90;;;;;;;26.55;33.79;100375.34;2042408;87;29895;-61
2022/05/26 13:07:18;;;;;;;;;;;;;;;;;;;;;
2022/05/26 13:10:40;;;;;;;2.05;0.90;;;;;;;26.76;33.80;100377.96;2035580;87;28832;-64
2022/05/26 13:13:55;;;;;;;3.08;0.80;;;;;;;26.64;33.40;100382.50;2001183;87;30291;-62
2022/05/26 13:17:24;;;;;;;0.80;0.70;;;;;;;26.59;33.15;100389.58;2020617;87;27782;-65
2022/05/26 13:20:39;;;;;;;1.00;0.57;;;;;;;26.54;33.38;100382.72;2017555;86;28699;-61
2022/05/26 13:23:40;;;;;;;2.30;1.10;;;;;;;26.51;33.26;100386.35;2088083;84;32354;-62
2022/05/26 13:26:45;;;;;;;5.15;0.62;;;;;;;26.51;33.62;100380.32;2078349;84;34194;-61
2022/05/26 13:33:35;;;;;;;2.75;0.80;;;;;;;26.73;33.04;100370.94;2105032;84;27652;-60
2022/05/26 13:36:49;;;;;;;2.65;0.55;;;;;;;26.80;32.75;100373.85;2101107;84;29353;-61
2022/05/26 13:40:22;;;;;;;1.70;0.60;;;;;;;26.65;32.85;100377.34;2104924;84;31011;-62
2022/05/26 13:43:38;;;;;;;0.80;0.60;;;;;;;26.53;33.00;100370.02;2104382;84;33752;-62
2022/05/26 13:46:52;;;;;;;2.08;0.50;;;;;;;26.37;32.60;100372.84;2104808;84;29492;-62
2022/05/26 13:50:09;;;;;;;2.42;0.62;;;;;;;26.16;32.92;100368.79;2104875;84;27840;-64
2022/05/26 13:53:18;;;;;;;4.22;0.75;;;;;;;25.93;32.72;100365.41;2104758;84;28455;-63
2022/05/26 13:56:31;;;;;;;5.50;0.80;;;;;;;25.66;32.71;100374.02;2104496;84;31899;-63
2022/05/26 13:59:36;;;;;;;3.52;0.70;;;;;;;25.40;33.22;100373.67;2104547;83;33694;-63
2022/05/26 14:02:38;;;;;;;0.93;0.80;;;;;;;25.23;33.78;100358.59;2104395;84;29354;-61
2022/05/26 14:06:07;;;;;;;5.90;0.80;;;;;;;25.08;33.78;100365.25;2104502;84;27683;-61
2022/05/26 14:09:26;;;;;;;0.82;0.80;;;;;;;24.94;33.91;100364.55;2103960;84;28704;-62
2022/05/26 14:12:30;;;;;;;1.37;0.47;;;;;;;24.74;33.87;100363.48;2096284;84;32302;-60
2022/05/26 14:16:07;;;;;;;1.27;0.78;;;;;;;24.62;33.85;100358.83;2104746;84;33004;-61
2022/05/26 14:19:11;;;;;;;2.72;0.68;;;;;;;24.62;33.81;100349.23;2104813;84;30141;-62
2022/05/26 14:22:26;;;;;;;1.90;0.50;;;;;;;24.57;33.73;100354.34;2105070;84;27613;-61
2022/05/26 14:25:28;;;;;;;;;;;;;;;24.55;33.95;100363.23;2076375;85;28738;-63
2022/05/26 14:28:37;;;;;;;3.42;1.00;;;;;;;24.50;34.00;100358.27;2081612;85;31093;-62
2022/05/26 14:31:40;;;;;;;2.45;0.80;;;;;;;24.49;34.22;100359.81;2082015;85;32982;-61
2022/05/26 14:34:47;;;;;;;2.72;0.80;;;;;;;24.56;34.42;100364.95;2110017;84;29902;-64
2022/05/26 14:37:50;;;;;;;2.95;1.25;;;;;;;24.67;34.74;100363.27;2117519;84;27715;-62
2022/05/26 14:40:52;;;;;;;3.60;0.82;;;;;;;24.69;34.55;100359.01;2117221;84;29067;-63
2022/05/26 14:44:03;;;;;;;2.02;0.65;;;;;;;24.69;34.72;100360.38;2113721;84;32270;-63
2022/05/26 14:47:05;;;;;;;2.12;1.25;;;;;;;24.72;34.73;100358.71;2116502;84;35042;-61
2022/05/26 14:50:10;;;;;;;4.78;0.90;;;;;;;24.70;34.83;100372.56;2117345;84;29418;-61
2022/05/26 14:53:13;;;;;;;1.77;0.80;;;;;;;24.56;34.70;100368.56;2117177;84;27737;-62
2022/05/26 14:56:17;;;;;;;1.02;0.70;;;;;;;24.40;34.49;100363.03;2117241;84;29355;-63
2022/05/26 14:59:19;;;;;;;1.90;0.60;;;;;;;24.26;34.55;100365.87;2117064;84;31024;-61
2022/05/26 15:02:22;;;;;;;0.93;0.50;;;;;;;24.20;34.64;100366.52;2116987;84;33702;-63
2022/05/26 15:05:27;;;;;;;2.95;1.12;;;;;;;24.21;34.95;100357.28;2116506;84;30480;-62
2022/05/26 15:08:41;;;;;;;0.93;0.57;;;;;;;24.27;35.14;100347.91;2095130;84;37154;-62
2022/05/26 15:11:41;;;;;;;1.50;0.72;;;;;;;24.36;35.28;100350.69;2116990;82;28628;-63
2022/05/26 15:14:44;;;;;;;3.87;0.90;;;;;;;24.40;35.30;100343.34;2116605;84;31922;-62
2022/05/26 15:17:49;;;;;;;3.25;0.80;;;;;;;24.26;35.29;100359.88;2116727;84;33857;-62
2022/05/26 15:20:51;;;;;;;3.95;0.95;;;;;;;24.12;35.21;100346.31;2117218;84;29402;-64
2022/05/26 15:23:54;;;;;;;7.00;1.07;;;;;;;23.95;35.45;100359.01;2117135;84;28120;-63
2022/05/26 15:26:58;;;;;;;2.92;0.82;;;;;;;23.86;35.59;100364.09;2105586;83;29552;-61
2022/05/26 15:30:01;;;;;;;1.10;0.93;;;;;;;23.80;35.87;100376.55;2101286;84;31064;-61